createdAt,value
2023-09-16T00:02:26.125Z,14.60
2023-09-16T00:04:54.358Z,14.60
2023-09-16T00:07:24.267Z,14.60
2023-09-16T00:09:52.460Z,14.50
2023-09-16T00:12:20.529Z,14.50
2023-09-16T00:14:48.543Z,14.40
2023-09-16T00:17:17.106Z,14.40
2023-09-16T00:19:45.746Z,14.30
2023-09-16T00:22:14.822Z,14.30
2023-09-16T00:24:45.060Z,14.30
2023-09-16T00:27:13.172Z,14.30
2023-09-16T00:29:41.145Z,14.30
2023-09-16T00:32:09.362Z,14.30
2023-09-16T00:34:37.376Z,14.30
2023-09-16T00:37:05.856Z,14.30
2023-09-16T00:39:34.259Z,14.30
2023-09-16T00:42:03.715Z,14.30
2023-09-16T00:44:31.862Z,14.30
2023-09-16T00:46:59.897Z,14.40
2023-09-16T00:49:30.016Z,14.40
2023-09-16T00:51:58.429Z,14.40
2023-09-16T00:54:26.884Z,14.40
2023-09-16T00:56:55.864Z,14.40
2023-09-16T00:59:28.184Z,14.40
2023-09-16T01:01:57.058Z,14.40
2023-09-16T01:04:25.205Z,14.40
2023-09-16T01:06:53.289Z,14.40
2023-09-16T01:09:22.083Z,14.50
2023-09-16T01:11:50.784Z,14.50
2023-09-16T01:14:18.867Z,14.40
2023-09-16T01:16:53.605Z,14.40
2023-09-16T01:19:35.021Z,14.40
2023-09-16T01:22:04.337Z,14.40
2023-09-16T01:24:32.541Z,14.40
2023-09-16T01:27:02.136Z,14.40
2023-09-16T01:29:30.788Z,14.40
2023-09-16T01:32:05.942Z,14.30
2023-09-16T01:34:39.158Z,14.30
2023-09-16T01:37:09.259Z,14.20
2023-09-16T01:39:37.921Z,14.20
2023-09-16T01:42:08.420Z,14.20
2023-09-16T01:44:36.476Z,14.30
2023-09-16T01:47:06.704Z,14.30
2023-09-16T01:49:35.066Z,14.20
2023-09-16T01:52:04.088Z,14.10
2023-09-16T01:54:32.191Z,14.00
2023-09-16T01:57:00.284Z,14.00
2023-09-16T01:59:29.654Z,14.00
2023-09-16T02:01:57.684Z,14.00
2023-09-16T02:04:25.736Z,14.00
2023-09-16T02:06:53.854Z,13.90
2023-09-16T02:09:21.890Z,13.90
2023-09-16T02:11:49.885Z,13.90
2023-09-16T02:14:18.657Z,14.00
2023-09-16T02:16:48.572Z,14.00
2023-09-16T02:19:16.679Z,14.00
2023-09-16T02:21:44.738Z,14.10
2023-09-16T02:24:12.870Z,14.00
2023-09-16T02:26:40.881Z,14.10
2023-09-16T02:29:08.889Z,14.00
2023-09-16T02:31:37.099Z,14.00
2023-09-16T02:34:06.634Z,14.00
2023-09-16T02:36:34.655Z,14.00
2023-09-16T02:39:02.910Z,14.00
2023-09-16T02:41:31.256Z,14.00
2023-09-16T02:43:59.370Z,13.90
2023-09-16T02:46:27.392Z,13.80
2023-09-16T02:48:55.824Z,13.80
2023-09-16T02:51:25.267Z,13.90
2023-09-16T02:53:56.869Z,13.90
2023-09-16T02:56:24.988Z,13.90
2023-09-16T02:58:54.492Z,13.90
2023-09-16T03:01:22.676Z,13.90
2023-09-16T03:03:50.890Z,13.90
2023-09-16T03:06:18.950Z,13.90
2023-09-16T03:08:51.647Z,13.90
2023-09-16T03:11:21.037Z,13.90
2023-09-16T03:13:49.164Z,13.80
2023-09-16T03:16:19.720Z,13.80
2023-09-16T03:18:49.084Z,13.80
2023-09-16T03:21:18.457Z,13.70
2023-09-16T03:23:48.148Z,13.70
2023-09-16T03:26:17.556Z,13.70
2023-09-16T03:28:47.774Z,13.70
2023-09-16T03:31:17.130Z,13.70
2023-09-16T03:33:45.468Z,13.70
2023-09-16T03:36:13.475Z,13.70
2023-09-16T03:38:49.301Z,13.60
2023-09-16T03:41:17.896Z,13.60
2023-09-16T03:43:49.538Z,13.60
2023-09-16T03:46:18.494Z,13.60
2023-09-16T03:48:46.596Z,13.60
2023-09-16T03:51:15.191Z,13.50
2023-09-16T03:53:43.271Z,13.40
2023-09-16T03:56:13.217Z,13.40
2023-09-16T03:58:41.452Z,13.40
2023-09-16T04:01:09.970Z,13.30
2023-09-16T04:03:38.227Z,13.30
2023-09-16T04:06:06.392Z,13.40
2023-09-16T04:08:41.326Z,13.30
2023-09-16T04:11:12.233Z,13.30
2023-09-16T04:13:40.312Z,13.40
2023-09-16T04:16:08.510Z,13.30
2023-09-16T04:18:37.452Z,13.40
2023-09-16T04:21:05.437Z,13.40
2023-09-16T04:23:33.476Z,13.30
2023-09-16T04:26:02.525Z,13.40
2023-09-16T04:28:31.958Z,13.40
2023-09-16T04:31:01.160Z,13.30
2023-09-16T04:33:29.277Z,13.40
2023-09-16T04:35:57.391Z,13.40
2023-09-16T04:38:25.443Z,13.50
2023-09-16T04:40:53.404Z,13.50
2023-09-16T04:43:21.672Z,13.40
2023-09-16T04:45:52.040Z,13.30
2023-09-16T04:48:23.640Z,13.30
2023-09-16T04:50:51.829Z,13.20
2023-09-16T04:53:19.862Z,13.20
2023-09-16T04:55:47.863Z,13.20
2023-09-16T04:58:16.040Z,13.20
2023-09-16T05:00:44.135Z,13.20
2023-09-16T05:03:13.582Z,13.20
2023-09-16T05:05:41.652Z,13.20
2023-09-16T05:08:09.716Z,13.10
2023-09-16T05:10:37.795Z,13.10
2023-09-16T05:13:06.092Z,13.20
2023-09-16T05:15:34.167Z,13.30
2023-09-16T05:18:04.593Z,13.20
2023-09-16T05:20:35.199Z,13.30
2023-09-16T05:23:03.459Z,13.20
2023-09-16T05:25:31.563Z,13.30
2023-09-16T05:27:59.624Z,13.20
2023-09-16T05:30:27.703Z,13.20
2023-09-16T05:32:55.832Z,13.10
2023-09-16T05:35:23.929Z,13.10
2023-09-16T05:37:54.393Z,13.10
2023-09-16T05:40:22.482Z,13.20
2023-09-16T05:42:51.526Z,13.10
2023-09-16T05:45:19.565Z,13.30
2023-09-16T05:47:49.643Z,13.30
2023-09-16T05:50:18.263Z,13.40
2023-09-16T05:52:46.377Z,13.40
2023-09-16T05:55:15.918Z,13.40
2023-09-16T05:57:43.984Z,13.60
2023-09-16T06:00:12.854Z,13.70
2023-09-16T06:02:41.277Z,13.80
2023-09-16T06:05:10.518Z,13.80
2023-09-16T06:07:42.137Z,13.90
2023-09-16T06:10:10.789Z,14.00
2023-09-16T06:12:40.312Z,14.10
2023-09-16T06:15:10.247Z,14.10
2023-09-16T06:17:38.255Z,14.20
2023-09-16T06:20:07.373Z,14.20
2023-09-16T06:22:35.428Z,14.30
2023-09-16T06:25:03.625Z,14.40
2023-09-16T06:27:32.228Z,14.50
2023-09-16T06:30:01.612Z,14.60
2023-09-16T06:32:29.735Z,14.70
2023-09-16T06:34:57.815Z,14.80
2023-09-16T06:37:25.894Z,14.80
2023-09-16T06:39:53.887Z,14.90
2023-09-16T06:42:21.902Z,14.90
2023-09-16T06:44:55.524Z,15.10
2023-09-16T06:47:28.566Z,15.30
2023-09-16T06:49:57.798Z,15.40
2023-09-16T06:52:27.698Z,15.40
2023-09-16T06:54:55.918Z,15.50
2023-09-16T06:57:24.105Z,15.60
2023-09-16T06:59:52.360Z,15.70
2023-09-16T07:02:23.445Z,15.80
2023-09-16T07:04:52.856Z,16.00
2023-09-16T07:07:21.381Z,16.30
2023-09-16T07:09:49.446Z,16.50
2023-09-16T07:12:17.474Z,16.70
2023-09-16T07:14:45.699Z,17.00
2023-09-16T07:17:13.740Z,17.20
2023-09-16T07:19:42.099Z,17.40
2023-09-16T07:22:11.610Z,17.60
2023-09-16T07:24:39.862Z,17.80
2023-09-16T07:27:07.856Z,18.00
2023-09-16T07:29:35.912Z,18.20
2023-09-16T07:32:04.077Z,18.30
2023-09-16T07:34:32.353Z,18.50
2023-09-16T07:37:02.826Z,18.60
2023-09-16T07:39:32.331Z,18.70
2023-09-16T07:42:00.368Z,18.70
2023-09-16T07:44:28.652Z,18.80
2023-09-16T07:46:56.629Z,19.00
2023-09-16T07:49:24.744Z,19.20
2023-09-16T07:51:52.809Z,19.30
2023-09-16T07:54:20.883Z,19.40
2023-09-16T07:56:50.276Z,19.50
2023-09-16T07:59:21.340Z,19.70
2023-09-16T08:01:49.691Z,19.80
2023-09-16T08:04:17.853Z,19.90
2023-09-16T08:06:45.987Z,20.10
2023-09-16T08:09:14.074Z,20.20
2023-09-16T08:11:42.133Z,20.30
2023-09-16T08:14:11.520Z,20.40
2023-09-16T08:16:39.641Z,20.50
2023-09-16T08:19:08.815Z,20.50
2023-09-16T08:21:37.111Z,20.60
2023-09-16T08:24:05.348Z,20.60
2023-09-16T08:26:33.370Z,20.70
2023-09-16T08:29:01.366Z,20.70
2023-09-16T08:31:30.879Z,20.70
2023-09-16T08:34:02.728Z,20.80
2023-09-16T08:36:30.721Z,20.80
2023-09-16T08:38:58.733Z,20.90
2023-09-16T08:41:35.836Z,21.00
2023-09-16T08:44:07.834Z,21.00
2023-09-16T08:46:43.366Z,21.00
2023-09-16T08:49:13.998Z,21.20
2023-09-16T08:51:44.795Z,21.30
2023-09-16T08:54:13.774Z,21.30
2023-09-16T08:56:44.771Z,21.40
2023-09-16T08:59:13.844Z,21.40
2023-09-16T09:01:44.620Z,21.50
2023-09-16T09:04:14.530Z,21.70
2023-09-16T09:06:44.127Z,21.70
2023-09-16T09:09:12.269Z,21.80
2023-09-16T09:11:41.181Z,21.90
2023-09-16T09:14:12.181Z,21.90
2023-09-16T09:16:45.232Z,22.00
2023-09-16T09:19:14.380Z,22.20
2023-09-16T09:21:44.369Z,22.20
2023-09-16T09:24:12.466Z,22.10
2023-09-16T09:26:40.526Z,22.20
2023-09-16T09:29:11.092Z,22.10
2023-09-16T09:31:39.421Z,22.00
2023-09-16T09:34:17.459Z,22.00
2023-09-16T09:36:47.608Z,22.00
2023-09-16T09:39:15.711Z,22.00
2023-09-16T09:41:45.054Z,22.00
2023-09-16T09:44:13.203Z,22.10
2023-09-16T09:46:42.033Z,22.20
2023-09-16T09:49:13.854Z,22.30
2023-09-16T09:51:44.140Z,22.40
2023-09-16T09:54:12.317Z,22.60
2023-09-16T09:56:40.498Z,22.60
2023-09-16T09:59:08.852Z,22.40
2023-09-16T10:01:37.138Z,22.40
2023-09-16T10:04:05.466Z,22.50
2023-09-16T10:06:34.928Z,22.50
2023-09-16T10:09:05.304Z,22.60
2023-09-16T10:11:34.315Z,22.70
2023-09-16T10:14:03.179Z,22.60
2023-09-16T10:16:32.049Z,22.50
2023-09-16T10:19:00.348Z,22.60
2023-09-16T10:21:28.469Z,22.70
2023-09-16T10:23:58.278Z,22.80
2023-09-16T10:26:26.400Z,23.00
2023-09-16T10:28:55.761Z,23.00
2023-09-16T10:31:24.923Z,23.20
2023-09-16T10:33:54.149Z,23.20
2023-09-16T10:36:23.721Z,23.40
2023-09-16T10:38:52.059Z,23.40
2023-09-16T10:41:22.545Z,23.40
2023-09-16T10:43:52.342Z,23.60
2023-09-16T10:46:23.509Z,23.80
2023-09-16T10:48:52.637Z,23.90
2023-09-16T10:51:25.686Z,24.00
2023-09-16T10:54:01.552Z,24.20
2023-09-16T10:56:34.767Z,24.40
2023-09-16T10:59:08.497Z,24.40
2023-09-16T11:01:40.098Z,24.50
2023-09-16T11:04:14.784Z,24.70
2023-09-16T11:06:44.106Z,24.70
2023-09-16T11:09:13.110Z,24.80
2023-09-16T11:11:43.293Z,24.70
2023-09-16T11:14:12.698Z,24.80
2023-09-16T11:16:46.906Z,24.90
2023-09-16T11:19:20.780Z,24.90
2023-09-16T11:21:49.403Z,25.00
2023-09-16T11:24:18.466Z,25.10
2023-09-16T11:26:51.168Z,25.00
2023-09-16T11:29:19.930Z,25.20
2023-09-16T11:31:48.276Z,25.10
2023-09-16T11:34:19.692Z,25.20
2023-09-16T11:36:52.209Z,25.30
2023-09-16T11:39:26.213Z,25.50
2023-09-16T11:41:55.772Z,25.70
2023-09-16T11:44:25.095Z,25.80
2023-09-16T11:46:53.694Z,26.10
2023-09-16T11:49:22.319Z,26.30
2023-09-16T11:51:52.480Z,26.40
2023-09-16T11:54:20.765Z,26.60
2023-09-16T11:56:49.029Z,26.60
2023-09-16T11:59:18.681Z,26.60
2023-09-16T12:01:47.259Z,26.70
2023-09-16T12:04:18.659Z,26.80
2023-09-16T12:06:47.198Z,26.80
2023-09-16T12:09:18.144Z,26.80
2023-09-16T12:11:50.365Z,26.80
2023-09-16T12:14:20.038Z,26.50
2023-09-16T12:16:48.264Z,26.50
2023-09-16T12:19:16.448Z,26.50
2023-09-16T12:21:49.120Z,26.50
2023-09-16T12:24:21.274Z,26.50
2023-09-16T12:26:49.472Z,26.40
2023-09-16T12:29:19.063Z,26.20
2023-09-16T12:31:48.110Z,26.20
2023-09-16T12:34:17.195Z,26.30
2023-09-16T12:36:50.530Z,26.40
2023-09-16T12:39:20.136Z,26.50
2023-09-16T12:42:00.679Z,26.70
2023-09-16T12:44:41.677Z,26.90
2023-09-16T12:47:10.427Z,27.10
2023-09-16T12:49:39.477Z,27.30
2023-09-16T12:52:09.121Z,27.40
2023-09-16T12:54:37.198Z,27.60
2023-09-16T12:57:08.713Z,27.60
2023-09-16T12:59:38.140Z,27.70
2023-09-16T13:02:07.359Z,27.80
2023-09-16T13:04:35.472Z,27.80
2023-09-16T13:07:03.866Z,28.00
2023-09-16T13:09:32.540Z,28.10
2023-09-16T13:12:02.805Z,28.10
2023-09-16T13:14:30.988Z,28.20
2023-09-16T13:17:00.444Z,28.30
2023-09-16T13:19:29.561Z,28.50
2023-09-16T13:21:59.399Z,28.60
2023-09-16T13:24:27.488Z,28.80
2023-09-16T13:26:56.592Z,28.90
2023-09-16T13:29:24.786Z,29.00
2023-09-16T13:32:04.167Z,29.20
2023-09-16T13:34:45.345Z,29.50
2023-09-16T13:37:13.668Z,29.70
2023-09-16T13:39:45.823Z,29.80
2023-09-16T13:42:14.061Z,29.90
2023-09-16T13:44:46.176Z,30.10
2023-09-16T13:47:15.637Z,30.30
2023-09-16T13:49:43.968Z,30.30
2023-09-16T13:52:12.062Z,30.20
2023-09-16T13:54:40.086Z,30.40
2023-09-16T13:57:08.142Z,30.60
2023-09-16T13:59:36.231Z,30.80
2023-09-16T14:02:04.345Z,31.10
2023-09-16T14:04:33.849Z,32.40
2023-09-16T14:07:02.174Z,33.70
2023-09-16T14:09:30.846Z,34.10
2023-09-16T14:11:58.831Z,35.00
2023-09-16T14:14:26.851Z,35.60
2023-09-16T14:16:55.017Z,35.90
2023-09-16T14:19:23.604Z,36.00
2023-09-16T14:21:53.055Z,36.10
2023-09-16T14:24:21.852Z,36.50
2023-09-16T14:26:49.926Z,37.10
2023-09-16T14:29:18.037Z,37.60
2023-09-16T14:31:46.337Z,37.40
2023-09-16T14:34:14.898Z,37.40
2023-09-16T14:36:43.709Z,37.70
2023-09-16T14:39:13.109Z,38.20
2023-09-16T14:41:41.186Z,38.50
2023-09-16T14:44:09.488Z,38.70
2023-09-16T14:46:38.481Z,38.50
2023-09-16T14:49:06.725Z,37.90
2023-09-16T14:51:40.564Z,37.90
2023-09-16T14:54:09.760Z,37.60
2023-09-16T14:56:39.132Z,38.00
2023-09-16T14:59:07.233Z,38.60
2023-09-16T15:01:35.473Z,38.80
2023-09-16T15:04:04.029Z,38.60
2023-09-16T15:06:32.212Z,38.70
2023-09-16T15:09:00.471Z,38.40
2023-09-16T15:11:30.237Z,38.10
2023-09-16T15:14:00.196Z,38.00
2023-09-16T15:18:57.214Z,39.10
2023-09-16T15:21:25.287Z,39.50
2023-09-16T15:23:54.848Z,39.10
2023-09-16T15:26:22.883Z,38.60
2023-09-16T15:28:52.783Z,38.00
2023-09-16T15:31:22.466Z,37.60
2023-09-16T15:33:51.236Z,36.90
2023-09-16T15:36:19.555Z,34.20
2023-09-16T15:38:47.576Z,35.60
2023-09-16T15:41:15.578Z,35.00
2023-09-16T15:43:43.606Z,34.30
2023-09-16T15:46:12.461Z,33.70
2023-09-16T15:48:42.177Z,33.20
2023-09-16T15:51:10.515Z,32.70
2023-09-16T15:53:38.553Z,32.10
2023-09-16T15:56:06.573Z,31.60
2023-09-16T15:58:34.839Z,31.20
2023-09-16T16:01:03.182Z,30.70
2023-09-16T16:03:31.644Z,30.20
2023-09-16T16:06:01.209Z,29.80
2023-09-16T16:08:29.244Z,29.40
2023-09-16T16:10:57.539Z,29.10
2023-09-16T16:13:25.737Z,28.80
2023-09-16T16:15:54.751Z,28.70
2023-09-16T16:18:23.048Z,28.50
2023-09-16T16:20:51.260Z,28.40
2023-09-16T16:23:20.839Z,28.20
2023-09-16T16:25:50.483Z,28.10
2023-09-16T16:28:18.651Z,28.00
2023-09-16T16:30:46.688Z,27.80
2023-09-16T16:33:14.745Z,27.80
2023-09-16T16:35:42.794Z,27.70
2023-09-16T16:38:10.835Z,27.60
2023-09-16T16:40:40.263Z,27.50
2023-09-16T16:43:08.311Z,27.40
2023-09-16T16:45:36.367Z,27.30
2023-09-16T16:48:07.205Z,26.40
2023-09-16T16:50:35.526Z,25.90
2023-09-16T16:53:03.955Z,25.60
2023-09-16T16:55:33.116Z,25.20
2023-09-16T16:58:03.751Z,24.70
2023-09-16T17:00:32.422Z,24.50
2023-09-16T17:03:00.498Z,24.30
2023-09-16T17:05:28.540Z,24.10
2023-09-16T17:07:57.787Z,24.00
2023-09-16T17:10:25.910Z,23.90
2023-09-16T17:12:53.958Z,23.60
2023-09-16T17:15:23.343Z,23.20
2023-09-16T17:17:51.415Z,23.00
2023-09-16T17:20:19.502Z,22.80
2023-09-16T17:22:47.646Z,22.60
2023-09-16T17:25:16.993Z,22.60
2023-09-16T17:27:45.305Z,22.50
2023-09-16T17:30:13.532Z,22.50
2023-09-16T17:32:43.304Z,22.40
2023-09-16T17:35:11.342Z,22.10
2023-09-16T17:37:39.508Z,22.20
2023-09-16T17:40:08.853Z,22.20
2023-09-16T17:42:37.144Z,22.10
2023-09-16T17:45:06.286Z,22.00
2023-09-16T17:47:34.352Z,21.90
2023-09-16T17:50:04.012Z,21.80
2023-09-16T17:52:32.229Z,21.80
2023-09-16T17:55:00.391Z,21.80
2023-09-16T17:57:28.438Z,21.70
2023-09-16T17:59:56.482Z,21.70
2023-09-16T18:02:24.754Z,21.70
2023-09-16T18:04:54.736Z,21.60
2023-09-16T18:07:24.330Z,21.50
2023-09-16T18:09:52.368Z,21.40
2023-09-16T18:12:20.395Z,21.30
2023-09-16T18:14:48.424Z,21.30
2023-09-16T18:17:16.936Z,21.30
2023-09-16T18:19:45.123Z,21.30
2023-09-16T18:22:13.601Z,21.30
2023-09-16T18:24:44.849Z,21.20
2023-09-16T18:27:12.919Z,21.20
2023-09-16T18:29:41.146Z,21.10
2023-09-16T18:32:09.324Z,20.90
2023-09-16T18:34:37.641Z,20.80
2023-09-16T18:37:05.891Z,20.70
2023-09-16T18:39:33.964Z,20.70
2023-09-16T18:42:04.309Z,20.60
2023-09-16T18:44:32.361Z,20.60
2023-09-16T18:47:00.417Z,20.50
2023-09-16T18:49:31.975Z,20.50
2023-09-16T18:52:00.372Z,20.50
2023-09-16T18:54:28.418Z,20.50
2023-09-16T18:56:56.504Z,20.50
2023-09-16T18:59:25.964Z,20.50
2023-09-16T19:01:54.206Z,20.40
2023-09-16T19:04:22.321Z,20.40
2023-09-16T19:06:50.570Z,20.30
2023-09-16T19:09:18.586Z,20.30
2023-09-16T19:11:47.870Z,20.30
2023-09-16T19:14:15.863Z,20.30
2023-09-16T19:16:45.821Z,20.30
2023-09-16T19:19:13.968Z,20.20
2023-09-16T19:21:42.059Z,20.20
2023-09-16T19:24:10.154Z,20.20
2023-09-16T19:26:40.660Z,20.10
2023-09-16T19:29:08.683Z,19.90
2023-09-16T19:31:36.855Z,19.90
2023-09-16T19:34:06.411Z,19.80
2023-09-16T19:36:35.619Z,19.80
2023-09-16T19:39:04.615Z,19.80
2023-09-16T19:41:33.904Z,19.80
2023-09-16T19:44:01.936Z,19.70
2023-09-16T19:46:34.909Z,19.70
2023-09-16T19:49:12.697Z,19.60
2023-09-16T19:51:40.747Z,19.60
2023-09-16T19:54:08.868Z,19.70
2023-09-16T19:56:45.561Z,19.70
2023-09-16T19:59:20.926Z,19.80
2023-09-16T20:01:49.316Z,19.90
2023-09-16T20:04:18.857Z,19.90
2023-09-16T20:06:46.883Z,19.90
2023-09-16T20:09:14.953Z,19.90
2023-09-16T20:11:42.952Z,19.90
2023-09-16T20:14:11.549Z,19.90
2023-09-16T20:16:39.672Z,19.90
2023-09-16T20:19:08.321Z,19.90
2023-09-16T20:21:37.970Z,19.90
2023-09-16T20:24:06.457Z,20.00
2023-09-16T20:26:34.546Z,20.00
2023-09-16T20:29:02.609Z,20.10
2023-09-16T20:31:30.701Z,20.20
2023-09-16T20:34:10.832Z,20.20
2023-09-16T20:36:44.528Z,20.30
2023-09-16T20:39:12.729Z,20.30
2023-09-16T20:41:40.776Z,20.30
2023-09-16T20:44:08.900Z,20.30
2023-09-16T20:46:37.091Z,20.20
2023-09-16T20:49:05.288Z,20.10
2023-09-16T20:51:33.332Z,20.00
2023-09-16T20:54:02.771Z,20.00
2023-09-16T20:56:30.771Z,19.90
2023-09-16T20:58:59.690Z,19.90
2023-09-16T21:01:27.784Z,20.00
2023-09-16T21:03:56.235Z,20.00
2023-09-16T21:06:24.437Z,20.00
2023-09-16T21:08:52.511Z,20.00
2023-09-16T21:11:21.974Z,19.80
2023-09-16T21:13:50.257Z,19.60
2023-09-16T21:16:18.692Z,19.60
2023-09-16T21:18:47.066Z,19.60
2023-09-16T21:21:15.097Z,19.50
2023-09-16T21:23:43.215Z,19.50
2023-09-16T21:26:11.549Z,19.60
2023-09-16T21:28:41.723Z,19.60
2023-09-16T21:31:09.852Z,19.70
2023-09-16T21:33:38.203Z,19.70
2023-09-16T21:36:06.554Z,19.80
2023-09-16T21:38:34.566Z,19.90
2023-09-16T21:41:02.613Z,19.80
2023-09-16T21:43:30.756Z,19.70
2023-09-16T21:46:00.203Z,19.60
2023-09-16T21:48:28.410Z,19.50
2023-09-16T21:50:56.493Z,19.40
2023-09-16T21:53:24.531Z,19.40
2023-09-16T21:55:52.570Z,19.50
2023-09-16T21:58:20.939Z,19.50
2023-09-16T22:00:48.993Z,19.50
2023-09-16T22:03:18.458Z,19.60
2023-09-16T22:05:47.853Z,19.60
2023-09-16T22:08:15.862Z,19.60
2023-09-16T22:10:43.918Z,19.60
2023-09-16T22:13:13.218Z,19.60
2023-09-16T22:15:41.547Z,19.70
2023-09-16T22:18:09.707Z,19.70
2023-09-16T22:20:40.806Z,19.80
2023-09-16T22:23:09.408Z,19.80
2023-09-16T22:25:37.597Z,19.80
2023-09-16T22:28:07.905Z,19.90
2023-09-16T22:30:36.665Z,19.90
2023-09-16T22:33:05.251Z,19.90
2023-09-16T22:35:33.534Z,19.90
2023-09-16T22:38:02.912Z,19.80
2023-09-16T22:40:30.977Z,19.90
2023-09-16T22:42:58.987Z,19.90
2023-09-16T22:45:27.099Z,19.90
2023-09-16T22:47:55.094Z,19.80
2023-09-16T22:50:23.178Z,19.70
2023-09-16T22:52:51.230Z,19.70
2023-09-16T22:55:20.664Z,19.70
2023-09-16T22:57:48.656Z,19.70
2023-09-16T23:00:17.224Z,19.80
2023-09-16T23:02:45.415Z,19.80
2023-09-16T23:05:13.506Z,19.80
2023-09-16T23:07:41.575Z,19.80
2023-09-16T23:10:10.566Z,19.80
2023-09-16T23:12:39.967Z,19.80
2023-09-16T23:15:08.749Z,19.70
2023-09-16T23:17:36.871Z,19.50
2023-09-16T23:20:05.656Z,19.40
2023-09-16T23:22:33.826Z,19.40
2023-09-16T23:25:01.824Z,19.30
2023-09-16T23:27:29.865Z,19.20
2023-09-16T23:29:59.325Z,19.10
2023-09-16T23:32:27.372Z,19.20
2023-09-16T23:34:55.393Z,19.20
2023-09-16T23:37:23.420Z,19.20
2023-09-16T23:39:51.742Z,19.10
2023-09-16T23:42:19.775Z,19.00
2023-09-16T23:44:52.570Z,18.90
2023-09-16T23:47:22.700Z,18.90
2023-09-16T23:49:50.801Z,18.90
2023-09-16T23:52:18.857Z,18.80
2023-09-16T23:54:46.883Z,18.80
2023-09-16T23:57:14.874Z,18.70
2023-09-16T23:59:42.912Z,18.50
